Time;durP1;ratioP1;P1;durP2;ratioP2;P2;SDS_P1;SDS_P2;PMS_P1;PMS_P2;Temp;Humidity;BMP_temperature;BMP_pressure;BME280_temperature;BME280_humidity;BME280_pressure;Samples;Min_cycle;Max_cycle;Signal;HPM_P1;HPM_P2
2022/09/20 00:01:21;;;;;;;5.23;3.57;;;21.00;49.20;;;;;;4986774;28;20476;-77
2022/09/20 00:03:50;;;;;;;7.30;4.17;;;21.00;49.20;;;;;;4996535;28;20448;-77
2022/09/20 00:06:19;;;;;;;4.10;3.70;;;21.00;49.10;;;;;;4992580;28;20461;-77
2022/09/20 00:08:47;;;;;;;5.30;4.00;;;21.00;49.20;;;;;;5003240;28;20486;-76
2022/09/20 00:11:17;;;;;;;4.47;3.90;;;20.90;49.30;;;;;;4991664;28;20481;-76
2022/09/20 00:13:45;;;;;;;6.83;3.60;;;21.00;49.30;;;;;;4992081;28;20470;-76
2022/09/20 00:16:16;;;;;;;4.97;3.90;;;20.90;49.20;;;;;;4982760;28;20481;-76
2022/09/20 00:18:47;;;;;;;6.73;3.77;;;20.90;49.10;;;;;;4988351;28;20882;-77
2022/09/20 00:21:15;;;;;;;4.17;3.60;;;20.90;49.30;;;;;;5002507;28;20456;-77
2022/09/20 00:23:43;;;;;;;6.27;4.17;;;20.90;49.40;;;;;;4995845;28;20959;-77
2022/09/20 00:26:12;;;;;;;5.80;4.10;;;20.90;49.20;;;;;;4983462;28;20461;-76
2022/09/20 00:28:40;;;;;;;4.37;3.50;;;20.90;49.30;;;;;;4993857;28;20444;-77
2022/09/20 00:31:08;;;;;;;5.73;3.40;;;20.90;49.20;;;;;;4992128;28;20469;-77
2022/09/20 00:36:23;;;;;;;4.47;3.07;;;20.90;49.40;;;;;;4985483;28;20457;-77
2022/09/20 00:38:55;;;;;;;4.57;3.70;;;20.90;49.30;;;;;;4999613;28;20473;-77
2022/09/20 00:41:23;;;;;;;6.50;3.80;;;20.80;49.10;;;;;;4991915;28;20481;-77
2022/09/20 00:43:51;;;;;;;7.03;4.03;;;20.80;49.40;;;;;;4992699;28;20461;-77
2022/09/20 00:46:22;;;;;;;5.00;3.50;;;20.80;49.20;;;;;;4991267;28;20986;-77
2022/09/20 00:48:53;;;;;;;4.20;3.57;;;20.80;49.30;;;;;;4991450;28;20445;-77
2022/09/20 00:51:24;;;;;;;3.60;3.37;;;20.80;49.40;;;;;;4992606;28;20435;-77
2022/09/20 00:53:52;;;;;;;4.50;3.30;;;20.70;49.30;;;;;;4989996;28;20453;-77
2022/09/20 00:56:21;;;;;;;6.10;3.60;;;20.70;49.30;;;;;;4992394;28;20476;-77
2022/09/20 00:58:51;;;;;;;4.93;3.47;;;20.70;49.40;;;;;;4994411;28;20524;-78
2022/09/20 01:01:19;;;;;;;4.07;3.17;;;20.70;49.40;;;;;;4994607;28;20479;-77
2022/09/20 01:03:47;;;;;;;5.20;3.40;;;20.70;49.30;;;;;;4992699;28;20541;-77
2022/09/20 01:06:17;;;;;;;5.10;2.83;;;20.60;49.40;;;;;;4989782;28;20453;-78
2022/09/20 01:08:47;;;;;;;4.27;3.10;;;20.70;49.50;;;;;;4994591;28;20441;-78
2022/09/20 01:11:15;;;;;;;3.30;3.10;;;20.70;49.70;;;;;;5011548;28;20471;-77
2022/09/20 01:13:43;;;;;;;4.07;3.20;;;20.60;49.20;;;;;;4997201;28;20456;-76
2022/09/20 01:16:11;;;;;;;3.47;3.17;;;20.60;49.40;;;;;;5007917;28;20453;-76
2022/09/20 01:18:38;;;;;;;3.80;3.33;;;20.60;49.60;;;;;;4991355;28;20492;-76
2022/09/20 01:21:06;;;;;;;3.13;2.83;;;20.60;49.50;;;;;;4990402;28;20474;-77
2022/09/20 01:23:48;;;;;;;5.20;3.30;;;20.50;49.40;;;;;;4992973;28;20453;-77
2022/09/20 01:26:45;;;;;;;4.30;3.07;;;20.50;49.50;;;;;;4985010;28;20473;-76
2022/09/20 01:29:22;;;;;;;3.03;2.73;;;20.60;49.50;;;;;;4988131;28;20479;-77
2022/09/20 01:31:52;;;;;;;5.70;3.10;;;20.50;49.40;;;;;;4995203;28;20445;-77
2022/09/20 01:34:23;;;;;;;3.53;3.00;;;20.50;49.40;;;;;;4991807;28;20453;-76
2022/09/20 01:36:53;;;;;;;5.43;3.03;;;20.50;49.50;;;;;;4991011;28;20456;-76
2022/09/20 01:39:25;;;;;;;3.40;3.10;;;20.40;49.40;;;;;;4987270;28;20597;-77
2022/09/20 01:41:55;;;;;;;5.27;3.07;;;20.40;49.80;;;;;;4985907;28;20521;-76
2022/09/20 01:44:28;;;;;;;4.10;3.50;;;20.40;49.50;;;;;;4989422;28;20517;-76
2022/09/20 01:46:59;;;;;;;4.23;3.33;;;20.30;49.70;;;;;;4999756;28;20452;-76
2022/09/20 01:49:30;;;;;;;4.60;3.27;;;20.30;49.80;;;;;;4981138;28;20482;-76
2022/09/20 01:52:36;;;;;;;3.60;2.80;;;20.30;49.60;;;;;;4992341;28;20502;-76
2022/09/20 01:55:30;;;;;;;3.33;3.03;;;20.30;49.60;;;;;;4984224;28;20476;-76
2022/09/20 01:58:32;;;;;;;4.13;3.37;;;20.20;49.60;;;;;;4994722;28;20433;-76
2022/09/20 02:01:14;;;;;;;5.93;3.33;;;20.30;50.40;;;;;;4985421;28;20484;-77
2022/09/20 02:04:03;;;;;;;4.30;3.10;;;20.30;49.60;;;;;;4999295;28;20437;-77
2022/09/20 02:06:41;;;;;;;4.00;2.97;;;20.20;49.60;;;;;;4977965;28;20507;-77
2022/09/20 02:09:30;;;;;;;3.63;3.30;;;20.20;49.70;;;;;;4995315;28;20515;-77
2022/09/20 02:12:44;;;;;;;3.93;3.10;;;20.20;49.80;;;;;;4976626;28;20478;-77
2022/09/20 02:15:17;;;;;;;3.93;3.07;;;20.20;49.70;;;;;;4922006;29;20447;-77
2022/09/20 02:17:52;;;;;;;4.13;2.97;;;20.20;49.70;;;;;;4991094;28;20461;-77
2022/09/20 02:20:29;;;;;;;3.90;3.10;;;20.20;49.80;;;;;;4995110;28;20483;-78
2022/09/20 02:23:10;;;;;;;3.37;3.03;;;20.20;49.70;;;;;;4991533;28;20864;-76
2022/09/20 02:25:53;;;;;;;3.20;2.90;;;20.20;49.50;;;;;;4994073;28;20845;-76
2022/09/20 02:28:25;;;;;;;4.90;2.87;;;20.20;49.70;;;;;;4987152;28;20461;-78
2022/09/20 02:30:56;;;;;;;3.43;2.33;;;20.10;49.60;;;;;;4997400;28;20979;-76
2022/09/20 02:33:45;;;;;;;2.93;2.50;;;20.10;49.70;;;;;;4994315;28;20453;-78
2022/09/20 02:36:20;;;;;;;3.50;2.80;;;20.10;49.80;;;;;;4995024;28;20462;-77
2022/09/20 02:38:54;;;;;;;3.17;2.70;;;20.10;50.30;;;;;;4995251;28;20457;-77
2022/09/20 02:41:46;;;;;;;3.57;2.80;;;20.20;49.80;;;;;;4992944;28;20540;-78
2022/09/20 02:44:18;;;;;;;3.83;2.97;;;20.10;49.60;;;;;;4979092;28;20457;-76
2022/09/20 02:46:50;;;;;;;3.50;2.63;;;20.10;49.50;;;;;;4995156;28;20453;-76
2022/09/20 02:49:23;;;;;;;3.20;2.80;;;20.10;49.60;;;;;;4987108;28;20469;-78
2022/09/20 02:51:52;;;;;;;4.53;2.93;;;20.10;49.70;;;;;;4987861;28;20461;-78
2022/09/20 02:54:29;;;;;;;3.93;3.10;;;20.10;49.60;;;;;;5000715;28;20465;-77
2022/09/20 02:57:00;;;;;;;5.57;3.33;;;20.00;49.50;;;;;;4988153;28;20468;-77
2022/09/20 02:59:31;;;;;;;6.17;3.40;;;20.00;49.70;;;;;;5013554;28;20464;-76
2022/09/20 03:02:05;;;;;;;3.40;3.10;;;20.00;49.70;;;;;;5014011;28;20532;-77
2022/09/20 03:04:40;;;;;;;4.70;3.37;;;19.90;49.70;;;;;;4995629;28;20523;-76
2022/09/20 03:07:11;;;;;;;3.50;3.20;;;19.90;49.70;;;;;;4994282;28;20524;-76
2022/09/20 03:09:41;;;;;;;3.73;3.10;;;20.00;49.90;;;;;;4999524;28;20472;-76
2022/09/20 03:12:14;;;;;;;4.23;3.03;;;20.00;49.70;;;;;;5001537;28;20472;-76
2022/09/20 03:14:45;;;;;;;4.37;3.37;;;20.00;49.60;;;;;;4996250;28;20449;-76
2022/09/20 03:17:18;;;;;;;3.20;3.00;;;19.90;49.60;;;;;;4993926;28;20449;-76
2022/09/20 03:19:55;;;;;;;3.57;3.17;;;19.90;49.70;;;;;;4992805;28;20477;-76
2022/09/20 03:22:28;;;;;;;4.43;3.40;;;19.90;49.80;;;;;;4993929;28;20444;-77
2022/09/20 03:25:04;;;;;;;5.60;3.70;;;19.90;49.80;;;;;;4993930;28;20449;-76
2022/09/20 03:27:34;;;;;;;3.80;3.43;;;19.90;49.70;;;;;;4991524;28;20461;-77
2022/09/20 03:30:15;;;;;;;6.80;4.00;;;19.90;49.80;;;;;;5000892;28;20480;-77
2022/09/20 03:32:49;;;;;;;4.30;3.50;;;19.90;49.80;;;;;;4991465;28;20440;-76
2022/09/20 03:35:28;;;;;;;5.33;3.60;;;19.90;49.80;;;;;;4974054;28;20975;-77
2022/09/20 03:38:02;;;;;;;4.73;3.90;;;19.90;49.80;;;;;;4983671;28;20453;-77
2022/09/20 03:40:57;;;;;;;4.33;3.30;;;19.90;49.70;;;;;;5001871;28;20475;-77
2022/09/20 03:43:32;;;;;;;6.03;3.60;;;19.90;49.80;;;;;;5001168;28;20460;-77
2022/09/20 03:46:07;;;;;;;4.77;3.27;;;19.90;49.60;;;;;;4988439;28;20460;-77
2022/09/20 03:48:56;;;;;;;4.97;3.40;;;20.00;49.80;;;;;;4998163;28;20464;-78
2022/09/20 03:51:28;;;;;;;5.17;3.60;;;20.00;49.80;;;;;;4987331;28;20449;-78
2022/09/20 03:54:21;;;;;;;5.97;3.40;;;20.00;49.80;;;;;;4993680;28;20449;-78
2022/09/20 03:56:59;;;;;;;3.70;3.37;;;20.00;49.60;;;;;;4989642;28;20468;-78
2022/09/20 03:59:39;;;;;;;4.47;3.77;;;19.90;49.40;;;;;;4992767;28;20480;-78
2022/09/20 04:02:27;;;;;;;4.80;3.40;;;19.90;49.70;;;;;;4994215;28;20441;-78
2022/09/20 04:04:57;;;;;;;4.13;3.27;;;19.90;49.70;;;;;;4999205;28;20440;-78
2022/09/20 04:07:30;;;;;;;4.03;3.23;;;19.90;49.80;;;;;;4993288;28;20469;-77
2022/09/20 04:10:18;;;;;;;3.30;3.00;;;19.90;49.70;;;;;;4985996;28;20473;-79
2022/09/20 04:12:55;;;;;;;7.13;3.30;;;19.90;49.70;;;;;;4991879;28;20936;-77
2022/09/20 04:15:31;;;;;;;3.90;3.50;;;19.80;49.60;;;;;;4986237;28;20948;-77
2022/09/20 04:18:02;;;;;;;5.30;3.87;;;19.90;50.10;;;;;;4991717;28;20508;-77
2022/09/20 04:20:34;;;;;;;4.67;3.67;;;19.90;49.80;;;;;;4996190;28;20483;-78
2022/09/20 04:23:08;;;;;;;4.30;3.57;;;19.90;49.70;;;;;;4994315;28;20476;-77
2022/09/20 04:25:38;;;;;;;4.20;3.27;;;19.90;49.80;;;;;;4992678;28;20473;-77
2022/09/20 04:28:13;;;;;;;4.20;3.50;;;19.90;49.90;;;;;;4992720;28;20548;-78
2022/09/20 04:30:42;;;;;;;4.10;3.37;;;19.90;50.10;;;;;;4984546;28;20513;-77
2022/09/20 04:33:15;;;;;;;3.53;3.00;;;19.90;49.70;;;;;;4998460;28;20440;-77
2022/09/20 04:38:44;;;;;;;4.10;3.40;;;19.80;49.80;;;;;;4924144;29;20457;-76
2022/09/20 04:41:20;;;;;;;4.90;3.27;;;19.80;49.90;;;;;;4968698;28;20488;-77
2022/09/20 04:44:16;;;;;;;3.57;3.10;;;19.80;50.00;;;;;;4990889;28;20461;-77
2022/09/20 04:47:21;;;;;;;6.17;3.30;;;19.80;49.90;;;;;;4997084;28;20461;-77
2022/09/20 04:50:16;;;;;;;4.80;3.30;;;19.80;49.90;;;;;;4992615;28;20467;-76
2022/09/20 04:53:13;;;;;;;3.13;2.90;;;19.80;49.90;;;;;;5002344;28;20454;-76
2022/09/20 04:55:50;;;;;;;4.53;3.13;;;19.80;49.80;;;;;;4996504;28;20467;-77
2022/09/20 04:58:35;;;;;;;3.50;2.93;;;19.80;49.90;;;;;;4985115;28;20448;-75
2022/09/20 05:01:35;;;;;;;3.40;3.10;;;19.80;49.90;;;;;;4991525;28;20901;-77
2022/09/20 05:04:21;;;;;;;3.50;3.20;;;19.70;49.90;;;;;;4993714;28;20499;-76
2022/09/20 05:07:03;;;;;;;3.00;2.80;;;19.70;49.90;;;;;;5003352;28;20861;-77
2022/09/20 05:09:41;;;;;;;3.90;2.93;;;19.70;49.90;;;;;;4996573;28;20483;-78
2022/09/20 05:12:33;;;;;;;3.60;3.20;;;19.70;50.00;;;;;;4990088;28;20481;-78
2022/09/20 05:15:11;;;;;;;4.90;3.50;;;19.70;49.90;;;;;;4992891;28;20445;-78
2022/09/20 05:17:49;;;;;;;4.20;2.70;;;19.70;49.90;;;;;;4991482;28;20465;-78
2022/09/20 05:20:42;;;;;;;3.20;2.90;;;19.70;50.10;;;;;;4979680;28;20473;-78
2022/09/20 05:23:52;;;;;;;3.80;2.70;;;19.70;49.90;;;;;;4995233;28;20505;-77
2022/09/20 05:26:26;;;;;;;4.33;3.40;;;19.70;50.00;;;;;;4983979;28;20475;-77
2022/09/20 05:28:58;;;;;;;4.90;3.13;;;19.70;50.00;;;;;;4999900;28;20433;-78
2022/09/20 05:31:32;;;;;;;4.37;2.77;;;19.70;50.20;;;;;;4992191;28;20492;-77
2022/09/20 05:34:04;;;;;;;6.60;3.00;;;19.60;50.00;;;;;;4987143;28;20450;-78
2022/09/20 05:36:43;;;;;;;2.93;2.70;;;19.60;50.00;;;;;;4992592;28;20445;-76
2022/09/20 05:39:32;;;;;;;3.20;2.90;;;19.60;50.00;;;;;;5015468;28;20464;-76
2022/09/20 05:42:04;;;;;;;3.00;2.70;;;19.60;50.00;;;;;;4997796;28;20480;-77
2022/09/20 05:44:45;;;;;;;3.47;2.70;;;19.60;50.10;;;;;;5001428;28;20452;-76
2022/09/20 05:47:18;;;;;;;3.17;2.37;;;19.70;50.20;;;;;;4991061;28;20457;-77
2022/09/20 05:49:51;;;;;;;2.60;2.40;;;19.70;49.80;;;;;;4994627;28;20484;-77
2022/09/20 05:52:28;;;;;;;2.97;2.67;;;19.70;50.00;;;;;;4987301;28;20449;-77
2022/09/20 05:55:03;;;;;;;3.20;2.40;;;19.70;50.10;;;;;;4997982;28;20440;-77
2022/09/20 05:57:39;;;;;;;3.23;2.63;;;19.70;49.90;;;;;;4995480;28;20447;-78
2022/09/20 06:00:10;;;;;;;4.10;3.10;;;19.70;49.80;;;;;;4995148;28;20479;-78
2022/09/20 06:02:41;;;;;;;3.63;3.03;;;19.70;49.70;;;;;;5001179;28;20469;-77
2022/09/20 06:05:13;;;;;;;5.23;2.97;;;19.70;49.90;;;;;;5014948;28;20451;-76
2022/09/20 06:07:58;;;;;;;3.70;2.73;;;19.80;50.10;;;;;;5001906;28;20459;-78
2022/09/20 06:10:38;;;;;;;3.53;2.73;;;19.90;49.90;;;;;;4985824;28;20528;-78
2022/09/20 06:13:15;;;;;;;3.03;2.80;;;19.90;49.60;;;;;;4994518;28;20453;-78
2022/09/20 06:15:48;;;;;;;2.97;2.20;;;19.80;49.50;;;;;;4996296;28;20464;-78
2022/09/20 06:18:21;;;;;;;3.83;3.00;;;19.80;49.80;;;;;;4993276;28;20456;-78
2022/09/20 06:20:52;;;;;;;2.87;2.67;;;19.80;49.60;;;;;;4997452;28;20488;-78
2022/09/20 06:23:21;;;;;;;4.00;3.17;;;19.90;50.00;;;;;;4996928;28;20468;-78
2022/09/20 06:25:54;;;;;;;3.40;3.10;;;19.90;49.60;;;;;;4997229;28;20500;-78
2022/09/20 06:28:24;;;;;;;5.93;3.17;;;20.00;50.00;;;;;;4994768;28;20448;-78
2022/09/20 06:30:53;;;;;;;3.30;3.00;;;20.00;49.60;;;;;;4995245;28;20484;-78
2022/09/20 06:33:23;;;;;;;5.10;2.73;;;20.00;49.60;;;;;;4997903;28;20460;-78
2022/09/20 06:35:53;;;;;;;3.90;3.13;;;20.10;49.80;;;;;;4999939;28;20437;-77
2022/09/20 06:41:29;;;;;;;3.77;3.37;;;20.10;49.50;;;;;;4979814;28;20474;-77
2022/09/20 06:43:58;;;;;;;3.40;3.00;;;20.10;49.50;;;;;;4993276;28;20485;-77
2022/09/20 06:46:28;;;;;;;4.10;3.30;;;20.20;49.50;;;;;;4990533;28;20458;-77
2022/09/20 06:48:56;;;;;;;3.83;3.20;;;20.20;49.40;;;;;;4997375;28;20429;-77
2022/09/20 06:51:27;;;;;;;4.00;3.40;;;20.10;49.60;;;;;;4992890;28;20799;-77
2022/09/20 06:53:56;;;;;;;4.93;3.57;;;20.20;49.40;;;;;;5001861;28;20456;-77
2022/09/20 06:56:25;;;;;;;4.97;3.90;;;20.20;49.40;;;;;;4993055;28;20473;-77
2022/09/20 06:58:53;;;;;;;5.20;3.63;;;20.30;49.60;;;;;;4997172;28;20437;-77
2022/09/20 07:01:21;;;;;;;3.80;3.50;;;20.30;49.60;;;;;;4994538;28;21027;-78
2022/09/20 07:03:58;;;;;;;4.33;3.73;;;20.40;49.60;;;;;;4993729;28;20447;-77
2022/09/20 07:06:28;;;;;;;4.03;3.23;;;20.40;49.20;;;;;;4994371;28;20457;-77
2022/09/20 07:08:55;;;;;;;5.60;3.67;;;20.40;49.40;;;;;;4994404;28;20449;-78
2022/09/20 07:11:24;;;;;;;5.83;3.80;;;20.40;49.40;;;;;;4993254;28;20476;-77
2022/09/20 07:13:52;;;;;;;7.83;3.33;;;20.40;49.30;;;;;;4995504;28;20457;-78
2022/09/20 07:16:20;;;;;;;5.80;3.77;;;20.40;49.20;;;;;;4997069;28;20457;-77
2022/09/20 07:18:50;;;;;;;5.77;3.90;;;20.40;49.40;;;;;;4994187;28;20486;-78
2022/09/20 07:21:20;;;;;;;3.40;3.10;;;20.50;49.00;;;;;;4994766;28;20416;-78
2022/09/20 07:23:49;;;;;;;5.33;4.10;;;20.50;49.20;;;;;;4995972;28;20477;-78
2022/09/20 07:26:19;;;;;;;4.83;3.50;;;20.50;49.40;;;;;;4990681;28;20465;-78
2022/09/20 07:28:48;;;;;;;5.37;3.80;;;20.50;49.40;;;;;;4994060;28;20461;-78
2022/09/20 07:31:16;;;;;;;6.10;4.47;;;20.50;49.00;;;;;;4986589;28;20449;-79
2022/09/20 07:33:44;;;;;;;4.60;4.20;;;20.60;49.30;;;;;;4993793;28;20505;-79
2022/09/20 07:36:12;;;;;;;7.20;5.07;;;20.70;49.30;;;;;;4994381;28;20434;-78
2022/09/20 07:38:41;;;;;;;7.30;5.47;;;20.70;49.20;;;;;;4995027;28;20453;-77
2022/09/20 07:41:10;;;;;;;7.10;5.40;;;20.80;48.90;;;;;;4996983;28;20476;-77
2022/09/20 07:43:37;;;;;;;7.97;5.73;;;20.80;49.20;;;;;;5000722;28;20464;-78
2022/09/20 07:46:05;;;;;;;7.23;5.97;;;20.90;49.00;;;;;;4996094;28;20453;-77
2022/09/20 07:48:34;;;;;;;8.87;6.17;;;20.90;48.90;;;;;;4995528;28;20457;-77
2022/09/20 07:51:03;;;;;;;10.03;7.30;;;20.90;49.00;;;;;;4991758;28;20529;-77
2022/09/20 07:53:35;;;;;;;12.40;7.10;;;20.90;48.70;;;;;;4991894;28;20835;-77
2022/09/20 07:56:06;;;;;;;9.60;7.37;;;20.90;48.90;;;;;;4989384;28;20457;-79
2022/09/20 07:58:34;;;;;;;10.27;7.27;;;21.00;49.00;;;;;;4990379;28;20469;-78
2022/09/20 08:01:03;;;;;;;11.80;7.77;;;21.10;49.50;;;;;;4990247;28;20481;-78
2022/09/20 08:03:31;;;;;;;12.97;8.60;;;21.10;48.60;;;;;;4990694;28;20531;-77
2022/09/20 08:05:59;;;;;;;10.23;7.87;;;21.20;48.80;;;;;;4992617;28;20437;-78
2022/09/20 08:08:28;;;;;;;10.97;8.03;;;21.30;48.50;;;;;;4993119;28;20449;-77
2022/09/20 08:11:02;;;;;;;11.87;8.57;;;21.30;48.50;;;;;;4992827;28;20469;-77
2022/09/20 08:13:31;;;;;;;13.70;9.33;;;21.40;48.40;;;;;;4992288;28;20433;-78
2022/09/20 08:16:20;;;;;;;12.87;9.30;;;21.50;48.40;;;;;;4989981;28;20508;-78
2022/09/20 08:18:49;;;;;;;10.33;8.17;;;21.60;48.30;;;;;;4989421;28;20457;-76
2022/09/20 08:21:17;;;;;;;12.73;8.50;;;21.60;48.20;;;;;;4994401;28;20445;-79
2022/09/20 08:23:46;;;;;;;13.10;9.40;;;21.80;48.30;;;;;;4994885;28;20469;-79
2022/09/20 08:26:16;;;;;;;10.03;6.87;;;21.90;48.50;;;;;;4995363;28;20459;-78
2022/09/20 08:28:46;;;;;;;7.33;6.30;;;22.10;49.60;;;;;;4992699;28;20453;-76
2022/09/20 08:31:15;;;;;;;8.43;6.60;;;22.40;49.40;;;;;;4995198;28;20476;-78
2022/09/20 08:33:43;;;;;;;8.63;7.33;;;22.60;49.50;;;;;;5012365;28;20444;-77
2022/09/20 08:36:13;;;;;;;10.90;7.13;;;22.90;49.40;;;;;;4998936;28;20464;-77
2022/09/20 08:38:41;;;;;;;9.47;6.87;;;23.00;49.40;;;;;;4999099;28;20480;-77
2022/09/20 08:41:31;;;;;;;9.60;6.70;;;23.20;49.40;;;;;;4991479;28;20480;-77
2022/09/20 08:44:02;;;;;;;8.40;6.10;;;23.50;49.50;;;;;;4993113;28;20473;-77
2022/09/20 08:46:34;;;;;;;7.77;6.00;;;23.70;49.20;;;;;;4992102;28;20516;-77
2022/09/20 08:49:03;;;;;;;6.73;6.03;;;23.90;49.10;;;;;;4991238;28;20453;-76
2022/09/20 08:51:33;;;;;;;8.43;6.23;;;24.10;49.00;;;;;;4994176;28;20457;-75
2022/09/20 08:54:03;;;;;;;6.40;5.33;;;24.30;49.00;;;;;;4998554;28;20449;-76
2022/09/20 08:56:35;;;;;;;7.37;6.40;;;24.50;48.90;;;;;;4983615;28;21015;-76
2022/09/20 08:59:04;;;;;;;8.60;6.30;;;24.60;48.60;;;;;;4992415;28;20489;-76
2022/09/20 09:01:32;;;;;;;6.17;5.57;;;24.80;48.40;;;;;;4991201;28;20524;-76
2022/09/20 09:04:06;;;;;;;6.47;5.73;;;25.00;48.30;;;;;;4991722;28;20481;-78
2022/09/20 09:06:34;;;;;;;6.33;5.73;;;25.00;48.00;;;;;;4992949;28;20536;-78
2022/09/20 09:09:02;;;;;;;7.50;6.00;;;25.10;48.00;;;;;;4997802;28;20484;-77
2022/09/20 09:11:30;;;;;;;6.33;5.73;;;25.10;47.60;;;;;;4996412;28;21192;-77
2022/09/20 09:14:01;;;;;;;6.50;5.70;;;25.10;47.70;;;;;;4997339;28;20410;-79
2022/09/20 09:16:32;;;;;;;6.83;5.53;;;25.10;47.60;;;;;;4995643;28;20435;-78
2022/09/20 09:19:27;;;;;;;6.67;5.80;;;25.10;47.60;;;;;;5004084;28;20478;-78
2022/09/20 09:22:01;;;;;;;6.77;5.83;;;25.20;47.60;;;;;;5003743;28;20504;-77
2022/09/20 09:24:30;;;;;;;7.13;5.40;;;25.10;47.60;;;;;;5004567;28;20450;-78
2022/09/20 09:27:08;;;;;;;8.17;5.90;;;25.10;47.60;;;;;;5001454;28;20428;-77
2022/09/20 09:29:36;;;;;;;8.20;6.43;;;25.20;47.70;;;;;;5001918;28;20447;-77
2022/09/20 09:32:22;;;;;;;8.43;6.23;;;25.30;47.60;;;;;;5002011;28;20445;-78
2022/09/20 09:34:50;;;;;;;7.20;5.97;;;25.50;47.30;;;;;;5005114;28;20428;-77
2022/09/20 09:37:26;;;;;;;7.00;6.17;;;25.60;47.20;;;;;;5014412;28;20427;-77
2022/09/20 09:40:11;;;;;;;13.80;6.13;;;25.70;47.00;;;;;;5005895;28;20466;-77
2022/09/20 09:42:48;;;;;;;6.77;5.93;;;25.90;47.30;;;;;;4998409;28;20451;-78
2022/09/20 09:45:26;;;;;;;7.93;7.13;;;26.20;47.10;;;;;;5000294;28;20483;-78
2022/09/20 09:47:55;;;;;;;7.50;6.20;;;26.40;46.60;;;;;;4994438;28;20419;-78
2022/09/20 09:50:25;;;;;;;9.20;6.53;;;26.70;46.50;;;;;;5005309;28;20483;-78
2022/09/20 09:52:58;;;;;;;6.43;5.80;;;27.00;46.00;;;;;;5017473;28;20467;-77
2022/09/20 09:55:28;;;;;;;7.67;6.33;;;27.00;45.70;;;;;;5021267;28;20422;-77
2022/09/20 09:57:58;;;;;;;6.13;5.30;;;27.00;45.60;;;;;;5020101;28;20414;-77
2022/09/20 10:00:27;;;;;;;10.30;5.67;;;27.00;45.70;;;;;;5017099;28;20455;-77
2022/09/20 10:03:26;;;;;;;8.10;6.00;;;27.00;45.70;;;;;;5006359;28;20444;-78
2022/09/20 10:06:03;;;;;;;5.93;5.37;;;26.90;45.70;;;;;;4998916;28;20427;-78
2022/09/20 10:08:35;;;;;;;9.07;5.47;;;27.00;45.90;;;;;;4999274;28;20458;-80
2022/09/20 10:11:09;;;;;;;6.10;5.00;;;27.40;46.00;;;;;;5000030;28;20472;-80
2022/09/20 10:13:38;;;;;;;8.00;5.40;;;27.70;45.60;;;;;;5000180;28;20408;-80
2022/09/20 10:16:12;;;;;;;5.90;5.30;;;27.90;45.20;;;;;;4999477;28;20428;-80
2022/09/20 10:18:46;;;;;;;6.37;5.73;;;28.10;44.90;;;;;;5011904;28;20462;-80
2022/09/20 10:21:24;;;;;;;5.50;4.40;;;28.10;44.80;;;;;;5011491;28;20465;-81
2022/09/20 10:24:03;;;;;;;5.73;5.13;;;28.10;44.80;;;;;;5003799;28;20436;-81
2022/09/20 10:26:49;;;;;;;6.00;4.70;;;28.10;44.70;;;;;;5005073;28;20507;-82
2022/09/20 10:29:25;;;;;;;8.20;4.90;;;28.10;44.70;;;;;;4997762;28;20544;-81
2022/09/20 10:31:56;;;;;;;4.63;4.23;;;28.20;44.80;;;;;;5006543;28;20459;-82
2022/09/20 10:34:59;;;;;;;6.13;4.90;;;28.40;44.70;;;;;;5007238;28;20453;-81
2022/09/20 10:37:31;;;;;;;7.73;5.10;;;28.30;44.30;;;;;;4964037;28;20463;-81
2022/09/20 10:40:02;;;;;;;5.93;4.90;;;28.40;44.70;;;;;;5017018;28;20424;-81
2022/09/20 10:45:23;;;;;;;6.00;4.70;;;29.10;44.60;;;;;;5008210;28;20451;-81
2022/09/20 10:48:17;;;;;;;7.67;5.13;;;29.50;44.50;;;;;;5008360;28;20456;-80
2022/09/20 10:50:48;;;;;;;9.00;4.30;;;29.80;44.30;;;;;;5006325;28;20549;-79
2022/09/20 10:53:26;;;;;;;11.13;5.20;;;30.30;43.80;;;;;;5011389;28;20527;-79
2022/09/20 10:56:04;;;;;;;6.67;4.60;;;30.40;43.10;;;;;;5011195;28;20470;-79
2022/09/20 10:58:45;;;;;;;6.80;4.23;;;30.50;42.70;;;;;;5012951;28;20416;-80
2022/09/20 11:01:17;;;;;;;5.40;4.47;;;30.60;43.10;;;;;;5023070;28;20449;-81
2022/09/20 11:04:29;;;;;;;9.93;4.53;;;31.10;42.70;;;;;;5023228;28;20572;-80
2022/09/20 11:07:06;;;;;;;5.57;4.17;;;31.30;42.20;;;;;;4996896;28;20452;-81
2022/09/20 11:09:35;;;;;;;8.80;4.30;;;31.90;42.00;;;;;;5006746;28;20472;-81
2022/09/20 11:12:10;;;;;;;12.60;4.03;;;32.60;40.00;;;;;;5009483;28;20456;-80
2022/09/20 11:14:40;;;;;;;7.33;4.17;;;32.10;40.10;;;;;;5006144;28;20488;-81
2022/09/20 11:17:12;;;;;;;5.70;3.83;;;31.70;40.50;;;;;;5010190;28;20512;-80
2022/09/20 11:19:47;;;;;;;7.00;3.97;;;31.20;41.10;;;;;;5007642;28;20467;-82
2022/09/20 11:22:19;;;;;;;8.13;4.17;;;30.80;41.50;;;;;;5005720;28;20440;-82
2022/09/20 11:24:49;;;;;;;7.37;4.37;;;30.40;42.00;;;;;;5004555;28;20440;-81
2022/09/20 11:27:18;;;;;;;7.50;4.07;;;30.10;42.40;;;;;;5007604;28;20454;-82
2022/09/20 11:29:49;;;;;;;8.07;4.20;;;29.90;42.60;;;;;;5013977;28;20465;-81
2022/09/20 11:32:19;;;;;;;6.20;3.90;;;29.70;43.00;;;;;;5011179;28;20529;-83
2022/09/20 11:34:52;;;;;;;6.77;4.20;;;29.40;43.20;;;;;;5013290;28;20458;-81
2022/09/20 11:37:24;;;;;;;5.13;4.40;;;29.20;43.40;;;;;;5006238;28;20525;-82
2022/09/20 11:39:54;;;;;;;8.03;4.60;;;29.00;43.70;;;;;;5011680;28;20439;-81
2022/09/20 11:42:23;;;;;;;6.13;4.30;;;28.80;44.00;;;;;;5012786;28;20429;-81
2022/09/20 11:44:51;;;;;;;9.40;4.63;;;28.70;44.30;;;;;;5002073;28;20480;-81
2022/09/20 11:47:21;;;;;;;8.53;4.83;;;28.60;44.40;;;;;;5025307;28;21030;-81
2022/09/20 11:50:37;;;;;;;7.53;4.30;;;28.40;44.80;;;;;;5012599;28;20430;-82
2022/09/20 11:53:10;;;;;;;9.93;5.10;;;28.30;44.90;;;;;;5002650;28;20431;-82
2022/09/20 11:55:42;;;;;;;11.80;4.50;;;28.20;45.10;;;;;;5012049;28;20450;-82
2022/09/20 11:58:12;;;;;;;10.27;5.80;;;28.10;45.20;;;;;;4999358;28;20496;-82
2022/09/20 12:00:41;;;;;;;9.20;4.93;;;28.00;45.20;;;;;;4988529;28;20506;-82
2022/09/20 12:03:21;;;;;;;10.50;5.30;;;27.90;45.40;;;;;;5009440;28;20456;-81
2022/09/20 12:05:55;;;;;;;11.00;5.43;;;27.90;45.50;;;;;;4989454;28;20499;-82
2022/09/20 12:08:27;;;;;;;12.87;5.93;;;27.90;45.40;;;;;;5007478;28;20430;-81
2022/09/20 12:10:57;;;;;;;7.63;5.23;;;27.90;45.50;;;;;;5006764;28;20452;-81
2022/09/20 12:13:26;;;;;;;8.57;5.30;;;27.90;45.50;;;;;;5003193;28;20436;-79
2022/09/20 12:15:59;;;;;;;7.37;5.30;;;28.00;45.50;;;;;;4992574;28;20483;-78
2022/09/20 12:18:39;;;;;;;8.37;4.87;;;28.10;45.40;;;;;;5004415;28;20440;-78
2022/09/20 12:21:08;;;;;;;9.83;5.00;;;28.30;45.10;;;;;;5000154;28;20443;-78
2022/09/20 12:24:09;;;;;;;8.20;4.97;;;28.50;44.80;;;;;;4981721;28;20497;-79
2022/09/20 12:26:39;;;;;;;8.50;5.20;;;28.80;44.60;;;;;;4997426;28;20453;-79
2022/09/20 12:29:51;;;;;;;15.43;5.23;;;29.70;42.90;;;;;;5002111;28;20449;-79
2022/09/20 12:32:56;;;;;;;5.43;4.70;;;29.90;42.60;;;;;;5002936;28;20438;-80
2022/09/20 12:35:59;;;;;;;9.80;4.77;;;30.30;41.80;;;;;;4991824;28;20463;-79
2022/09/20 12:38:55;;;;;;;5.17;4.20;;;30.60;41.70;;;;;;5015412;28;20450;-79
2022/09/20 12:41:23;;;;;;;5.33;4.63;;;32.00;40.90;;;;;;5013220;28;20463;-79
2022/09/20 12:44:01;;;;;;;5.10;3.87;;;32.70;38.50;;;;;;5017954;28;20440;-78
2022/09/20 12:46:32;;;;;;;7.40;4.60;;;32.80;37.70;;;;;;5015254;28;20532;-79
2022/09/20 12:52:49;;;;;;;10.90;4.30;;;32.80;37.60;;;;;;4997753;28;20465;-78
2022/09/20 12:54:53;;;;;;;6.87;4.00;;;33.60;38.40;;;;;;4998290;28;20473;-78
2022/09/20 12:57:30;;;;;;;6.67;3.87;;;35.10;35.40;;;;;;4992181;28;20456;-77
2022/09/20 13:00:00;;;;;;;5.63;3.70;;;35.20;34.10;;;;;;5004300;28;20472;-79
2022/09/20 13:02:58;;;;;;;5.27;3.80;;;35.60;34.70;;;;;;5005019;28;20461;-79
2022/09/20 13:05:36;;;;;;;6.00;3.50;;;36.80;33.80;;;;;;5004059;28;20417;-80
2022/09/20 13:08:16;;;;;;;3.70;3.40;;;38.30;31.10;;;;;;5008929;28;20451;-78
2022/09/20 13:10:49;;;;;;;4.70;2.93;;;39.60;29.90;;;;;;5004975;28;20798;-79
2022/09/20 13:13:33;;;;;;;3.40;3.10;;;40.60;28.90;;;;;;5012019;28;20473;-81
2022/09/20 13:16:07;;;;;;;3.10;2.20;;;41.50;28.00;;;;;;5007082;28;20552;-81
2022/09/20 13:18:39;;;;;;;2.70;2.50;;;42.20;27.30;;;;;;4990432;28;20446;-81
2022/09/20 13:21:08;;;;;;;2.70;2.20;;;42.10;27.00;;;;;;5001145;28;20470;-79
2022/09/20 13:23:45;;;;;;;2.77;2.50;;;42.50;26.80;;;;;;5029077;28;20466;-80
2022/09/20 13:26:14;;;;;;;4.63;2.80;;;40.70;27.60;;;;;;5020354;28;20427;-79
2022/09/20 13:28:47;;;;;;;4.40;3.30;;;39.00;29.10;;;;;;5011904;28;20512;-79
2022/09/20 13:31:35;;;;;;;4.10;3.00;;;37.50;30.20;;;;;;4992566;28;20457;-79
2022/09/20 13:34:13;;;;;;;16.27;1.90;;;36.00;32.20;;;;;;4983230;28;20480;-79
2022/09/20 13:36:42;;;;;;;4.50;3.10;;;32.20;30.70;;;;;;4994525;28;20476;-79
2022/09/20 13:39:20;;;;;;;1.90;1.80;;;29.60;34.10;;;;;;4998434;28;20477;-79
2022/09/20 13:41:49;;;;;;;2.63;1.20;;;28.10;37.70;;;;;;4992680;28;20419;-79